Time;durP1;ratioP1;P1;durP2;ratioP2;P2;SDS_P1;SDS_P2;PMS_P1;PMS_P2;Temp;Humidity;BMP_temperature;BMP_pressure;BME280_temperature;BME280_humidity;BME280_pressure;Samples;Min_cycle;Max_cycle;Signal;HPM_P1;HPM_P2
2022/07/13 00:01:12;;;;;;;1.63;1.52;;;18.80;58.70;;;;;;5105870;28;20028;-60
2022/07/13 00:03:37;;;;;;;1.50;1.40;;;18.80;58.80;;;;;;5112704;28;20090;-60
2022/07/13 00:06:03;;;;;;;1.27;1.23;;;18.80;58.80;;;;;;5113301;28;20183;-60
2022/07/13 00:08:29;;;;;;;1.60;1.50;;;18.70;58.90;;;;;;5109587;28;20104;-60
2022/07/13 00:10:55;;;;;;;1.30;1.23;;;18.70;59.00;;;;;;5102389;28;20495;-60
2022/07/13 00:13:20;;;;;;;1.60;1.40;;;18.70;58.90;;;;;;5108013;28;20024;-60
2022/07/13 00:15:46;;;;;;;1.05;0.90;;;18.70;58.90;;;;;;5105808;28;20102;-60
2022/07/13 00:18:13;;;;;;;1.88;1.25;;;18.70;58.80;;;;;;5107086;28;20023;-60
2022/07/13 00:20:39;;;;;;;1.38;1.27;;;18.70;58.80;;;;;;5107442;28;20023;-60
2022/07/13 00:23:04;;;;;;;0.85;0.85;;;18.70;58.80;;;;;;5105572;28;20020;-60
2022/07/13 00:25:30;;;;;;;0.90;0.90;;;18.70;58.80;;;;;;5111858;28;20056;-60
2022/07/13 00:27:56;;;;;;;1.30;1.30;;;18.70;58.90;;;;;;5099485;28;20024;-60
2022/07/13 00:30:21;;;;;;;1.00;0.90;;;18.60;58.90;;;;;;5119191;27;20088;-60
2022/07/13 00:32:47;;;;;;;0.93;0.93;;;18.60;59.00;;;;;;5104552;28;20388;-60
2022/07/13 00:35:13;;;;;;;1.30;1.30;;;18.60;59.00;;;;;;5097228;28;20095;-60
2022/07/13 00:37:39;;;;;;;0.90;0.90;;;18.60;59.00;;;;;;5094076;28;20419;-60
2022/07/13 00:40:05;;;;;;;1.10;1.10;;;18.60;59.00;;;;;;5097340;28;20024;-60
2022/07/13 00:42:30;;;;;;;1.08;1.00;;;18.60;59.10;;;;;;5106404;28;20023;-60
2022/07/13 00:44:56;;;;;;;1.23;1.20;;;18.60;59.10;;;;;;5096519;28;20085;-60
2022/07/13 00:47:22;;;;;;;1.00;1.00;;;18.60;59.20;;;;;;5094628;28;20024;-60
2022/07/13 00:49:49;;;;;;;0.95;0.95;;;18.50;59.10;;;;;;5096907;28;20125;-60
2022/07/13 00:52:15;;;;;;;1.10;1.10;;;18.50;59.10;;;;;;5103945;28;20215;-60
2022/07/13 00:54:42;;;;;;;0.98;0.98;;;18.50;59.20;;;;;;5109180;28;20019;-60
2022/07/13 00:57:11;;;;;;;1.45;1.35;;;18.50;59.20;;;;;;5102762;28;20027;-60
2022/07/13 00:59:37;;;;;;;1.00;1.00;;;18.50;59.20;;;;;;5082714;28;20024;-60
2022/07/13 01:02:03;;;;;;;1.45;1.10;;;18.40;59.20;;;;;;5100638;28;20384;-60
2022/07/13 01:04:29;;;;;;;1.20;1.08;;;18.40;59.30;;;;;;5100121;28;20023;-60
2022/07/13 01:06:55;;;;;;;1.02;1.02;;;18.40;59.30;;;;;;5095390;28;20016;-60
2022/07/13 01:09:22;;;;;;;1.10;1.00;;;18.40;59.40;;;;;;5087902;28;20058;-60
2022/07/13 01:11:48;;;;;;;1.60;1.50;;;18.40;59.50;;;;;;5104981;28;20081;-60
2022/07/13 01:14:15;;;;;;;1.23;1.23;;;18.40;59.50;;;;;;5105294;28;20036;-59
2022/07/13 01:16:42;;;;;;;1.23;1.23;;;18.40;59.50;;;;;;5088254;28;20028;-60
2022/07/13 01:19:11;;;;;;;1.38;1.08;;;18.30;59.50;;;;;;5103327;28;20038;-60
2022/07/13 01:21:41;;;;;;;1.40;1.30;;;18.30;59.60;;;;;;5104229;28;20019;-60
2022/07/13 01:24:07;;;;;;;1.45;1.13;;;18.30;59.60;;;;;;5107043;28;20080;-60
2022/07/13 01:26:33;;;;;;;1.20;1.20;;;18.30;59.60;;;;;;5102076;28;20491;-59
2022/07/13 01:28:59;;;;;;;0.88;0.88;;;18.30;59.70;;;;;;5113630;28;20422;-60
2022/07/13 01:31:34;;;;;;;1.63;1.52;;;18.30;59.80;;;;;;5102440;28;20106;-60
2022/07/13 01:34:00;;;;;;;1.48;1.38;;;18.30;59.90;;;;;;5101016;28;20514;-60
2022/07/13 01:36:26;;;;;;;1.40;1.30;;;18.20;59.70;;;;;;5095790;28;20436;-60
2022/07/13 01:38:52;;;;;;;1.63;1.50;;;18.20;59.90;;;;;;5096353;28;20380;-60
2022/07/13 01:41:19;;;;;;;2.38;1.55;;;18.20;60.00;;;;;;5098686;28;20017;-60
2022/07/13 01:43:46;;;;;;;2.53;1.73;;;18.20;60.10;;;;;;5082283;28;20024;-60
2022/07/13 01:46:11;;;;;;;1.88;1.77;;;18.10;60.00;;;;;;5092583;28;20023;-60
2022/07/13 01:48:37;;;;;;;1.80;1.70;;;18.10;60.10;;;;;;5098374;28;20446;-60
2022/07/13 01:51:03;;;;;;;2.78;1.58;;;18.10;60.20;;;;;;5103650;28;20038;-60
2022/07/13 01:53:29;;;;;;;2.13;1.92;;;18.10;60.30;;;;;;5098073;28;20120;-60
2022/07/13 01:55:54;;;;;;;2.22;2.03;;;18.00;60.30;;;;;;5103936;28;20436;-60
2022/07/13 01:58:20;;;;;;;2.15;2.03;;;18.00;60.40;;;;;;5081166;28;20483;-60
2022/07/13 02:00:46;;;;;;;1.60;1.50;;;18.00;60.40;;;;;;5105588;28;20020;-60
2022/07/13 02:03:11;;;;;;;1.90;1.73;;;17.90;60.50;;;;;;5100151;28;20090;-60
2022/07/13 02:05:37;;;;;;;2.30;2.10;;;18.00;60.70;;;;;;5108389;28;20020;-60
2022/07/13 02:08:03;;;;;;;1.70;1.60;;;18.00;60.80;;;;;;5082336;28;20028;-60
2022/07/13 02:10:34;;;;;;;2.00;1.80;;;18.00;60.80;;;;;;5104774;28;20039;-60
2022/07/13 02:13:04;;;;;;;2.03;1.92;;;18.00;60.80;;;;;;5092295;28;20111;-60
2022/07/13 02:15:30;;;;;;;2.38;1.52;;;17.90;60.70;;;;;;5098994;28;20042;-60
2022/07/13 02:17:56;;;;;;;1.85;1.50;;;17.90;60.80;;;;;;5116291;27;20103;-60
2022/07/13 02:20:22;;;;;;;1.58;1.48;;;17.90;60.90;;;;;;5110910;28;20468;-60
2022/07/13 02:22:48;;;;;;;1.98;1.80;;;17.90;60.90;;;;;;5109967;28;20032;-60
2022/07/13 02:25:14;;;;;;;2.70;2.15;;;18.00;61.10;;;;;;5115061;28;20027;-59
2022/07/13 02:27:40;;;;;;;1.80;1.70;;;18.00;61.20;;;;;;5115288;28;20024;-60
2022/07/13 02:30:07;;;;;;;1.60;1.42;;;18.00;61.20;;;;;;5112392;27;20024;-60
2022/07/13 02:32:33;;;;;;;1.98;1.80;;;18.00;61.20;;;;;;5110254;27;20110;-60
2022/07/13 02:34:58;;;;;;;1.90;1.65;;;18.00;61.20;;;;;;5107600;28;20448;-60
2022/07/13 02:37:24;;;;;;;1.70;1.60;;;18.00;61.10;;;;;;5095437;28;20030;-60
2022/07/13 02:39:51;;;;;;;1.73;1.60;;;18.00;61.20;;;;;;5103059;28;20021;-60
2022/07/13 02:42:17;;;;;;;1.02;1.02;;;18.10;61.10;;;;;;5106799;28;20102;-60
2022/07/13 02:44:42;;;;;;;1.70;1.60;;;18.10;61.00;;;;;;5100701;28;20111;-60
2022/07/13 02:47:08;;;;;;;2.05;1.35;;;18.10;61.00;;;;;;5097094;27;20020;-60
2022/07/13 02:49:34;;;;;;;1.33;1.30;;;18.10;61.10;;;;;;5100559;28;20044;-59
2022/07/13 02:51:59;;;;;;;1.45;1.35;;;18.10;61.10;;;;;;5100117;28;20024;-60
2022/07/13 02:54:26;;;;;;;1.70;1.55;;;18.10;61.00;;;;;;5106374;28;20080;-60
2022/07/13 02:56:51;;;;;;;1.38;1.30;;;18.10;61.10;;;;;;5102429;28;20028;-60
2022/07/13 02:59:17;;;;;;;1.65;1.55;;;18.10;61.10;;;;;;5104420;28;20509;-60
2022/07/13 03:01:43;;;;;;;2.13;1.75;;;18.10;61.00;;;;;;5107232;28;20081;-60
2022/07/13 03:04:09;;;;;;;1.13;1.02;;;18.10;61.30;;;;;;5108293;28;20043;-60
2022/07/13 03:06:34;;;;;;;1.50;1.50;;;18.20;61.40;;;;;;5099234;28;20034;-60
2022/07/13 03:09:00;;;;;;;1.40;1.40;;;18.20;61.30;;;;;;5102466;28;20089;-60
2022/07/13 03:11:25;;;;;;;1.27;1.27;;;18.20;61.30;;;;;;5100300;28;20479;-60
2022/07/13 03:13:51;;;;;;;1.20;1.20;;;18.20;61.20;;;;;;5099657;28;20063;-60
2022/07/13 03:16:17;;;;;;;1.75;1.65;;;18.20;61.10;;;;;;5108297;28;20387;-60
2022/07/13 03:18:42;;;;;;;1.25;1.15;;;18.30;61.30;;;;;;5104736;28;20034;-59
2022/07/13 03:21:08;;;;;;;1.30;1.20;;;18.30;61.30;;;;;;5100518;28;20020;-60
2022/07/13 03:23:35;;;;;;;1.92;1.77;;;18.30;61.30;;;;;;5100682;28;20047;-60
2022/07/13 03:26:01;;;;;;;1.65;1.50;;;18.40;61.30;;;;;;5107333;28;20020;-60
2022/07/13 03:28:26;;;;;;;1.95;1.70;;;18.50;61.40;;;;;;5116447;27;20497;-60
2022/07/13 03:30:52;;;;;;;1.67;1.58;;;18.50;61.60;;;;;;5117033;27;20028;-60
2022/07/13 03:33:17;;;;;;;1.52;1.42;;;18.60;62.00;;;;;;5114402;28;20099;-60
2022/07/13 03:35:43;;;;;;;1.80;1.70;;;18.90;62.90;;;;;;5114064;28;20027;-60
2022/07/13 03:38:09;;;;;;;1.55;1.42;;;19.10;63.50;;;;;;5101816;28;20039;-60
2022/07/13 03:40:34;;;;;;;1.08;1.08;;;19.30;63.80;;;;;;5101501;28;20020;-60
2022/07/13 03:43:00;;;;;;;1.00;1.00;;;19.70;64.20;;;;;;5105921;28;20012;-60
2022/07/13 03:45:26;;;;;;;1.60;1.50;;;20.10;64.00;;;;;;5097063;27;20024;-60
2022/07/13 03:47:51;;;;;;;1.17;1.10;;;20.60;63.90;;;;;;5095671;28;20035;-60
2022/07/13 03:50:17;;;;;;;2.78;1.67;;;21.20;63.40;;;;;;5103285;28;20495;-60
2022/07/13 03:52:44;;;;;;;1.58;1.20;;;22.00;62.50;;;;;;5105420;28;20026;-60
2022/07/13 03:55:09;;;;;;;1.20;1.10;;;22.90;61.40;;;;;;5101942;28;20111;-60
2022/07/13 03:57:35;;;;;;;0.80;0.80;;;23.90;60.00;;;;;;5109075;28;20107;-60
2022/07/13 04:00:01;;;;;;;0.95;0.95;;;25.00;58.60;;;;;;5100498;28;20091;-60
2022/07/13 04:02:26;;;;;;;2.22;1.15;;;26.10;57.00;;;;;;5109141;27;20384;-61
2022/07/13 04:04:52;;;;;;;1.08;1.05;;;27.10;55.40;;;;;;5104609;28;20352;-60
2022/07/13 04:07:17;;;;;;;1.33;1.23;;;28.10;54.00;;;;;;5095951;28;20020;-60
2022/07/13 04:09:43;;;;;;;1.75;1.63;;;29.00;52.90;;;;;;5096616;28;20028;-61
2022/07/13 04:12:09;;;;;;;1.13;1.02;;;29.80;51.60;;;;;;5094761;28;20021;-61
2022/07/13 04:14:35;;;;;;;1.23;1.13;;;30.60;50.80;;;;;;5102337;28;20028;-60
2022/07/13 04:17:00;;;;;;;1.00;1.00;;;31.30;49.70;;;;;;5110713;28;20027;-60
2022/07/13 04:19:26;;;;;;;1.30;1.20;;;32.10;49.10;;;;;;5111223;28;20153;-60
2022/07/13 04:21:52;;;;;;;2.10;1.23;;;32.80;48.20;;;;;;5107903;27;20020;-60
2022/07/13 04:24:17;;;;;;;0.68;0.68;;;33.50;47.20;;;;;;5103458;28;20120;-61
2022/07/13 04:26:43;;;;;;;1.08;0.98;;;34.10;46.30;;;;;;5090293;28;20027;-60
2022/07/13 04:29:09;;;;;;;0.40;0.40;;;34.60;45.40;;;;;;5112424;28;20035;-60
2022/07/13 04:31:34;;;;;;;0.90;0.63;;;35.00;44.50;;;;;;5104906;28;20026;-60
2022/07/13 04:34:00;;;;;;;1.85;1.00;;;35.40;44.10;;;;;;5108591;28;20032;-60
2022/07/13 04:36:25;;;;;;;1.45;0.82;;;35.80;43.80;;;;;;5108949;28;20051;-60
2022/07/13 04:38:51;;;;;;;1.00;0.88;;;36.20;43.40;;;;;;5110101;28;20043;-60
2022/07/13 04:41:17;;;;;;;0.82;0.52;;;36.70;42.90;;;;;;5109478;28;20031;-60
2022/07/13 04:43:45;;;;;;;0.77;0.75;;;37.00;42.30;;;;;;5119304;27;20061;-60
2022/07/13 04:46:12;;;;;;;0.65;0.60;;;37.30;42.20;;;;;;5117337;27;20379;-61
2022/07/13 04:48:38;;;;;;;0.63;0.63;;;37.70;41.90;;;;;;5117856;27;20043;-59
2022/07/13 04:51:04;;;;;;;0.90;0.75;;;38.10;41.60;;;;;;5110369;28;20434;-59
2022/07/13 04:53:30;;;;;;;0.52;0.52;;;38.40;40.70;;;;;;5112583;28;20020;-59
2022/07/13 04:55:56;;;;;;;0.45;0.45;;;38.60;40.50;;;;;;5107122;28;20027;-59
2022/07/13 04:58:22;;;;;;;1.20;1.08;;;38.80;40.40;;;;;;5101626;28;20069;-59
2022/07/13 05:00:47;;;;;;;0.50;0.43;;;39.00;39.50;;;;;;5099914;27;20417;-59
2022/07/13 05:03:13;;;;;;;1.30;0.73;;;39.00;39.10;;;;;;5104368;27;20024;-59
2022/07/13 05:05:38;;;;;;;0.30;0.30;;;39.10;39.10;;;;;;5098871;28;20020;-59
2022/07/13 05:08:05;;;;;;;0.40;0.40;;;39.20;39.20;;;;;;5096960;28;20027;-59
2022/07/13 05:10:31;;;;;;;0.63;0.63;;;39.30;39.00;;;;;;5093051;28;20475;-59
2022/07/13 05:12:57;;;;;;;0.52;0.52;;;39.50;38.90;;;;;;5093315;28;20392;-59
2022/07/13 05:15:23;;;;;;;0.63;0.47;;;39.70;38.70;;;;;;5100580;28;20034;-59
2022/07/13 05:17:50;;;;;;;0.80;0.80;;;39.80;38.00;;;;;;5105617;28;20516;-59
2022/07/13 05:20:15;;;;;;;1.17;0.60;;;39.60;37.50;;;;;;5111537;28;20031;-59
2022/07/13 05:22:41;;;;;;;0.60;0.60;;;39.30;37.40;;;;;;5103615;28;20088;-59
2022/07/13 05:25:07;;;;;;;0.80;0.68;;;38.80;37.30;;;;;;5111651;28;20031;-59
2022/07/13 05:27:33;;;;;;;0.77;0.77;;;38.20;37.40;;;;;;5103944;28;20142;-59
2022/07/13 05:29:58;;;;;;;0.70;0.55;;;37.40;37.30;;;;;;5096520;28;20063;-59
2022/07/13 05:32:24;;;;;;;1.05;0.80;;;36.50;37.60;;;;;;5097210;28;20051;-59
2022/07/13 05:34:50;;;;;;;1.00;0.85;;;35.50;37.70;;;;;;5099633;28;20086;-59
2022/07/13 05:37:16;;;;;;;0.70;0.70;;;34.50;38.10;;;;;;5107718;28;20023;-59
2022/07/13 05:39:46;;;;;;;0.80;0.80;;;33.50;38.70;;;;;;5099450;28;20441;-59
2022/07/13 05:42:13;;;;;;;1.27;1.17;;;32.50;39.10;;;;;;5104481;28;20034;-58
2022/07/13 05:44:38;;;;;;;0.82;0.82;;;31.60;39.60;;;;;;5098771;28;20364;-59
2022/07/13 05:47:04;;;;;;;1.10;0.93;;;30.80;40.00;;;;;;5084873;28;20023;-59
2022/07/13 05:49:30;;;;;;;1.00;1.00;;;30.20;40.60;;;;;;5090108;28;20039;-59
2022/07/13 05:51:56;;;;;;;0.93;0.93;;;29.50;41.20;;;;;;5090969;27;20567;-58
2022/07/13 05:54:21;;;;;;;1.00;0.82;;;29.00;41.50;;;;;;5104973;27;20467;-59
2022/07/13 05:56:48;;;;;;;0.80;0.80;;;28.50;41.90;;;;;;5095495;27;20802;-59
2022/07/13 05:59:13;;;;;;;0.77;0.77;;;28.20;42.40;;;;;;5099519;27;20501;-58
2022/07/13 06:01:39;;;;;;;0.70;0.70;;;27.80;42.80;;;;;;5096900;28;20036;-59
2022/07/13 06:04:05;;;;;;;0.73;0.73;;;27.50;43.00;;;;;;5092301;27;20020;-58
2022/07/13 06:06:30;;;;;;;0.80;0.80;;;27.20;43.20;;;;;;5090793;27;20482;-58
2022/07/13 06:08:56;;;;;;;0.63;0.63;;;27.00;43.60;;;;;;5094148;27;20034;-59
2022/07/13 06:11:22;;;;;;;0.60;0.60;;;26.80;43.70;;;;;;5096768;27;20040;-58
2022/07/13 06:13:47;;;;;;;0.75;0.75;;;26.70;43.90;;;;;;5095049;27;20036;-59
2022/07/13 06:16:13;;;;;;;1.02;0.95;;;26.60;44.20;;;;;;5097761;27;20043;-58
2022/07/13 06:18:39;;;;;;;0.85;0.70;;;26.40;44.30;;;;;;5099779;27;20093;-59
2022/07/13 06:21:04;;;;;;;0.57;0.57;;;26.30;44.60;;;;;;5090158;27;20032;-59
2022/07/13 06:23:30;;;;;;;0.60;0.60;;;26.20;44.80;;;;;;5091559;27;20122;-59
2022/07/13 06:25:58;;;;;;;0.77;0.60;;;26.00;45.00;;;;;;5096849;27;20031;-59
2022/07/13 06:28:23;;;;;;;0.40;0.40;;;25.90;45.20;;;;;;5100687;27;20020;-59
2022/07/13 06:30:49;;;;;;;0.80;0.80;;;25.80;45.40;;;;;;5095515;27;20038;-59
2022/07/13 06:33:14;;;;;;;1.15;0.80;;;25.70;45.50;;;;;;5094861;27;20032;-59
2022/07/13 06:35:40;;;;;;;0.63;0.63;;;25.50;45.70;;;;;;5097111;27;20510;-59
2022/07/13 06:38:06;;;;;;;0.80;0.80;;;25.30;46.00;;;;;;5098642;27;20027;-59
2022/07/13 06:40:31;;;;;;;1.00;0.95;;;25.20;46.20;;;;;;5089642;28;20135;-59
2022/07/13 06:42:57;;;;;;;0.82;0.80;;;25.10;46.40;;;;;;5098302;27;20016;-59
2022/07/13 06:45:23;;;;;;;0.77;0.77;;;24.90;46.60;;;;;;5098165;27;20038;-59
2022/07/13 06:47:50;;;;;;;1.25;1.15;;;24.80;46.70;;;;;;5091373;28;20671;-59
2022/07/13 06:50:15;;;;;;;0.70;0.70;;;24.60;46.90;;;;;;5084131;27;20144;-59
2022/07/13 06:52:43;;;;;;;0.95;0.95;;;24.50;47.70;;;;;;5085830;27;20040;-59
2022/07/13 06:55:09;;;;;;;0.43;0.43;;;24.40;47.30;;;;;;5083290;27;20088;-59
2022/07/13 06:57:35;;;;;;;0.50;0.50;;;24.20;47.50;;;;;;5082398;27;20491;-58
2022/07/13 07:00:01;;;;;;;0.80;0.80;;;24.20;47.90;;;;;;5086792;27;20085;-59
2022/07/13 07:02:26;;;;;;;0.85;0.85;;;24.00;48.10;;;;;;5084883;28;20038;-59
2022/07/13 07:04:54;;;;;;;1.00;1.00;;;23.90;48.30;;;;;;5088890;27;20032;-58
2022/07/13 07:07:19;;;;;;;1.25;1.02;;;23.80;48.70;;;;;;5081977;27;20050;-59
2022/07/13 07:09:45;;;;;;;0.70;0.70;;;23.70;49.20;;;;;;5086246;27;20020;-57
2022/07/13 07:12:10;;;;;;;0.77;0.77;;;23.60;49.30;;;;;;5096915;27;20503;-56
2022/07/13 07:14:37;;;;;;;1.15;1.15;;;23.60;49.60;;;;;;5093440;27;20055;-56
2022/07/13 07:17:03;;;;;;;1.20;0.80;;;23.70;49.70;;;;;;5093204;27;20039;-57
2022/07/13 07:19:29;;;;;;;2.40;1.10;;;23.60;50.10;;;;;;5094203;27;20036;-56
2022/07/13 07:21:55;;;;;;;0.75;0.75;;;23.60;49.40;;;;;;5093575;27;20388;-59
2022/07/13 07:24:22;;;;;;;0.63;0.63;;;23.60;50.20;;;;;;5093493;27;20047;-59
2022/07/13 07:26:51;;;;;;;0.70;0.70;;;23.60;49.80;;;;;;5086202;27;20634;-59
2022/07/13 07:29:16;;;;;;;0.60;0.60;;;23.50;49.80;;;;;;5073492;27;20036;-59
2022/07/13 07:31:42;;;;;;;0.75;0.75;;;23.50;50.00;;;;;;5089779;27;20028;-58
2022/07/13 07:34:08;;;;;;;1.30;1.20;;;23.40;50.20;;;;;;5088810;27;20060;-58
2022/07/13 07:36:34;;;;;;;1.00;1.00;;;23.30;50.50;;;;;;5093666;27;20467;-58
2022/07/13 07:39:00;;;;;;;0.95;0.95;;;23.30;50.70;;;;;;5086325;27;20081;-57
2022/07/13 07:41:25;;;;;;;1.10;1.05;;;23.30;51.00;;;;;;5089452;28;20050;-59
2022/07/13 07:43:51;;;;;;;1.05;1.05;;;23.30;51.10;;;;;;5091056;27;20077;-59
2022/07/13 07:46:17;;;;;;;1.10;1.00;;;23.20;51.00;;;;;;5089623;27;20067;-58
2022/07/13 07:48:42;;;;;;;1.15;1.05;;;23.20;51.10;;;;;;5077054;27;20532;-59
2022/07/13 07:51:08;;;;;;;1.05;1.05;;;23.20;51.30;;;;;;5080029;28;20910;-58
2022/07/13 07:53:34;;;;;;;0.93;0.93;;;23.20;51.20;;;;;;5081270;27;20023;-58
2022/07/13 07:55:59;;;;;;;1.15;0.95;;;23.10;51.30;;;;;;5083615;27;20150;-58
2022/07/13 07:58:25;;;;;;;1.10;0.98;;;23.10;51.30;;;;;;5089555;27;20036;-58
2022/07/13 08:00:51;;;;;;;1.05;0.68;;;23.10;51.50;;;;;;5085695;27;20024;-57
2022/07/13 08:03:16;;;;;;;1.05;1.05;;;23.00;51.50;;;;;;5087549;27;20491;-58
2022/07/13 08:05:47;;;;;;;1.70;1.50;;;22.90;51.50;;;;;;5086581;27;20031;-57
2022/07/13 08:08:12;;;;;;;1.48;1.38;;;22.90;51.70;;;;;;5080564;27;20403;-58
2022/07/13 08:10:38;;;;;;;0.90;0.90;;;22.90;51.50;;;;;;5088067;28;20051;-60
2022/07/13 08:13:04;;;;;;;1.13;1.13;;;22.80;51.70;;;;;;5089900;27;20047;-60
2022/07/13 08:15:30;;;;;;;1.20;1.20;;;22.80;51.90;;;;;;5090643;27;20027;-58
2022/07/13 08:17:57;;;;;;;1.08;0.93;;;22.80;51.90;;;;;;5085994;27;20482;-58
2022/07/13 08:20:23;;;;;;;1.63;1.20;;;22.80;52.10;;;;;;5081756;27;20483;-58
2022/07/13 08:22:50;;;;;;;1.00;1.00;;;22.80;52.00;;;;;;5081213;28;20092;-58
2022/07/13 08:25:16;;;;;;;0.77;0.77;;;22.80;52.20;;;;;;5083512;27;20024;-58
2022/07/13 08:27:41;;;;;;;0.93;0.93;;;22.80;52.30;;;;;;5092492;27;21581;-59
2022/07/13 08:30:08;;;;;;;0.98;0.90;;;22.80;52.50;;;;;;5079602;27;20035;-58
2022/07/13 08:32:33;;;;;;;1.15;1.05;;;22.80;52.30;;;;;;5081957;27;20475;-59
2022/07/13 08:40:31;;;;;;;0.80;0.80;;;22.80;52.10;;;;;;5085212;27;20486;-59
2022/07/13 08:42:57;;;;;;;0.98;0.98;;;22.80;52.30;;;;;;5086132;27;20031;-59
2022/07/13 08:45:24;;;;;;;0.93;0.93;;;22.80;52.30;;;;;;5076425;28;20027;-59
2022/07/13 08:47:50;;;;;;;1.15;1.08;;;22.80;52.40;;;;;;5075068;27;20040;-59
2022/07/13 08:50:17;;;;;;;0.90;0.90;;;22.80;52.40;;;;;;5079032;27;20047;-58
2022/07/13 08:52:42;;;;;;;1.10;1.10;;;22.80;52.60;;;;;;5073769;27;20498;-60
2022/07/13 08:55:08;;;;;;;1.30;1.20;;;22.80;52.90;;;;;;5071253;27;20031;-59
2022/07/13 08:57:36;;;;;;;1.27;1.17;;;22.80;53.10;;;;;;5074093;27;20551;-59
2022/07/13 09:00:08;;;;;;;0.82;0.82;;;22.80;53.30;;;;;;5068043;28;20032;-60
2022/07/13 09:02:34;;;;;;;1.10;1.00;;;22.80;53.40;;;;;;5073436;28;20024;-58
2022/07/13 09:05:05;;;;;;;1.10;1.10;;;22.80;53.40;;;;;;5079575;28;20024;-57
2022/07/13 09:07:33;;;;;;;1.13;1.10;;;22.80;53.60;;;;;;5073195;27;24714;-58
2022/07/13 09:10:01;;;;;;;1.02;1.02;;;22.80;53.60;;;;;;5077053;28;20043;-58
2022/07/13 09:12:28;;;;;;;2.05;1.30;;;22.90;53.60;;;;;;5078566;27;20032;-58
2022/07/13 09:14:59;;;;;;;1.75;1.15;;;23.00;53.60;;;;;;5080520;28;21635;-58
2022/07/13 09:17:33;;;;;;;1.10;1.00;;;23.00;53.60;;;;;;5077805;27;20152;-58
2022/07/13 09:20:20;;;;;;;1.10;1.00;;;23.00;53.50;;;;;;5077312;28;20038;-63
2022/07/13 09:22:56;;;;;;;0.90;0.90;;;23.10;53.70;;;;;;5076930;28;20024;-58
2022/07/13 09:25:40;;;;;;;0.70;0.70;;;23.20;53.80;;;;;;5073884;27;20035;-56
2022/07/13 09:28:12;;;;;;;0.75;0.75;;;23.20;54.30;;;;;;5067200;28;20046;-58
2022/07/13 09:30:42;;;;;;;0.60;0.60;;;23.20;54.50;;;;;;5073705;28;20035;-59
2022/07/13 09:33:08;;;;;;;1.23;1.13;;;23.20;54.80;;;;;;5082321;28;20035;-58
2022/07/13 09:35:47;;;;;;;1.00;1.00;;;23.10;55.10;;;;;;5070932;28;20041;-58
2022/07/13 09:38:30;;;;;;;0.95;0.90;;;23.10;55.50;;;;;;5076316;28;20402;-58
2022/07/13 09:40:56;;;;;;;0.60;0.60;;;23.10;55.70;;;;;;5071783;28;20086;-58
2022/07/13 09:46:09;;;;;;;0.80;0.80;;;22.90;55.70;;;;;;5076151;28;20035;-57
2022/07/13 09:48:38;;;;;;;1.25;0.95;;;22.80;55.70;;;;;;5077222;28;20726;-58
2022/07/13 09:51:05;;;;;;;0.93;0.80;;;22.80;56.10;;;;;;5082179;28;20685;-59
2022/07/13 09:53:34;;;;;;;0.80;0.80;;;22.60;56.40;;;;;;5089325;28;20674;-59
2022/07/13 09:56:01;;;;;;;0.70;0.70;;;22.50;56.70;;;;;;5085368;28;20126;-57
2022/07/13 09:58:28;;;;;;;0.65;0.65;;;22.40;56.90;;;;;;5081146;28;20023;-58
2022/07/13 10:00:58;;;;;;;0.82;0.82;;;22.30;57.10;;;;;;5081883;28;20490;-58
2022/07/13 10:03:25;;;;;;;1.13;1.13;;;22.30;57.70;;;;;;5081308;28;20035;-58
2022/07/13 10:05:52;;;;;;;0.90;0.90;;;22.20;57.70;;;;;;5081592;28;20032;-58
2022/07/13 10:08:18;;;;;;;1.00;0.95;;;22.10;58.00;;;;;;5080293;28;20062;-58
2022/07/13 10:10:46;;;;;;;0.80;0.80;;;22.00;58.20;;;;;;5082696;28;20065;-58
2022/07/13 10:13:13;;;;;;;4.18;1.02;;;21.90;58.50;;;;;;5093217;28;20035;-58
2022/07/13 10:15:39;;;;;;;0.60;0.60;;;21.80;58.90;;;;;;5079871;28;20050;-58
2022/07/13 10:18:08;;;;;;;0.77;0.77;;;21.80;59.00;;;;;;5086889;28;20031;-58
2022/07/13 10:20:36;;;;;;;1.08;0.98;;;21.80;59.20;;;;;;5083636;28;20038;-58
2022/07/13 10:23:01;;;;;;;0.70;0.70;;;21.90;59.40;;;;;;5080602;28;20582;-57
2022/07/13 10:25:42;;;;;;;0.88;0.63;;;21.80;59.50;;;;;;5087916;28;20038;-58
2022/07/13 10:28:09;;;;;;;0.98;0.98;;;21.80;59.70;;;;;;5080094;28;20039;-58
2022/07/13 10:30:35;;;;;;;2.40;1.23;;;21.80;59.70;;;;;;5077282;28;20471;-57
2022/07/13 10:33:21;;;;;;;1.13;1.02;;;21.90;59.90;;;;;;5080769;28;20035;-59
2022/07/13 10:35:54;;;;;;;1.30;1.15;;;21.90;60.10;;;;;;5084237;27;20040;-58
2022/07/13 10:38:28;;;;;;;0.90;0.90;;;21.90;60.10;;;;;;5090930;27;20036;-58
2022/07/13 10:41:21;;;;;;;1.10;0.80;;;21.90;59.80;;;;;;5089662;27;20525;-57
2022/07/13 10:43:55;;;;;;;0.70;0.70;;;21.90;59.90;;;;;;5083251;28;20031;-58
2022/07/13 10:46:49;;;;;;;1.00;1.00;;;21.90;59.70;;;;;;5080071;27;20522;-58
2022/07/13 10:49:30;;;;;;;1.08;0.90;;;22.00;59.90;;;;;;5079680;27;20065;-58
2022/07/13 10:51:59;;;;;;;;;;;22.00;59.90;;;;;;5083235;27;20032;-58
2022/07/13 10:54:25;;;;;;;1.05;0.95;;;21.90;59.80;;;;;;5081350;27;20605;-58
2022/07/13 10:57:14;;;;;;;1.35;1.25;;;21.90;59.30;;;;;;5077461;27;20046;-57
2022/07/13 10:59:49;;;;;;;1.42;1.33;;;21.80;60.00;;;;;;5069291;27;20085;-59
2022/07/13 11:02:50;;;;;;;1.08;1.00;;;21.80;60.00;;;;;;5069052;28;20158;-59
2022/07/13 11:05:21;;;;;;;1.73;1.63;;;21.80;60.20;;;;;;5083032;27;20616;-58
2022/07/13 11:07:51;;;;;;;1.35;1.25;;;21.70;60.40;;;;;;5091014;27;20032;-60
2022/07/13 11:10:33;;;;;;;1.88;1.73;;;21.70;60.30;;;;;;5084634;27;20034;-59
2022/07/13 11:13:08;;;;;;;1.23;1.20;;;21.60;60.50;;;;;;5086168;27;20031;-58
2022/07/13 11:15:47;;;;;;;1.60;1.48;;;21.50;60.50;;;;;;5076196;27;20667;-58
2022/07/13 11:18:22;;;;;;;1.70;1.50;;;21.40;60.90;;;;;;5087410;27;20051;-59
2022/07/13 11:21:10;;;;;;;1.98;1.63;;;21.40;60.90;;;;;;5083821;27;20579;-58
2022/07/13 11:26:55;;;;;;;2.08;1.52;;;21.30;61.80;;;;;;5085129;27;20062;-59
2022/07/13 11:29:55;;;;;;;1.48;1.30;;;21.30;62.00;;;;;;5085281;27;20235;-58
2022/07/13 11:32:21;;;;;;;1.38;1.33;;;21.40;62.50;;;;;;5091131;27;20028;-59
2022/07/13 11:34:47;;;;;;;1.27;1.20;;;21.50;62.00;;;;;;5090696;27;20042;-58
2022/07/13 11:37:13;;;;;;;1.63;1.50;;;21.50;61.90;;;;;;5085914;27;20599;-59
2022/07/13 11:39:39;;;;;;;1.70;1.30;;;21.60;62.00;;;;;;5075039;27;20036;-61
2022/07/13 11:42:06;;;;;;;1.40;1.30;;;21.70;62.30;;;;;;5062615;27;20035;-58
2022/07/13 11:44:34;;;;;;;2.88;1.65;;;21.70;62.10;;;;;;5056977;27;20034;-59
2022/07/13 11:47:11;;;;;;;0.80;0.80;;;21.80;62.40;;;;;;5077349;27;20036;-59
2022/07/13 11:49:51;;;;;;;1.60;1.50;;;21.80;62.20;;;;;;5075079;27;20051;-59
2022/07/13 11:52:24;;;;;;;1.40;1.30;;;21.70;62.20;;;;;;5080839;27;20032;-58
2022/07/13 11:54:57;;;;;;;1.80;1.60;;;21.70;62.40;;;;;;5069130;27;20031;-58
2022/07/13 11:57:22;;;;;;;1.15;1.15;;;21.70;62.80;;;;;;5079550;27;20525;-59
2022/07/13 11:59:48;;;;;;;1.52;1.42;;;21.70;63.10;;;;;;5081913;27;20080;-59
2022/07/13 12:02:14;;;;;;;1.52;1.42;;;21.70;63.30;;;;;;5077087;27;20728;-59
2022/07/13 12:04:40;;;;;;;1.75;1.40;;;21.70;63.20;;;;;;5084936;27;20035;-59
2022/07/13 12:07:28;;;;;;;1.63;1.48;;;21.60;63.20;;;;;;5077132;27;20027;-57
2022/07/13 12:09:59;;;;;;;2.15;1.63;;;21.60;63.40;;;;;;5072962;27;20074;-59
2022/07/13 12:12:29;;;;;;;5.68;2.70;;;21.50;63.40;;;;;;5074820;27;20028;-59
2022/07/13 12:14:56;;;;;;;3.20;1.98;;;21.50;63.90;;;;;;5082583;27;20056;-60
2022/07/13 12:17:23;;;;;;;2.20;1.65;;;21.40;64.10;;;;;;5063797;27;20118;-59
2022/07/13 12:19:50;;;;;;;1.70;1.60;;;21.30;64.20;;;;;;5076722;27;20610;-59
2022/07/13 12:22:21;;;;;;;2.03;1.75;;;21.30;64.40;;;;;;5063739;27;20023;-58
2022/07/13 12:24:48;;;;;;;1.50;1.40;;;21.20;64.60;;;;;;5080642;27;20107;-59
2022/07/13 12:27:29;;;;;;;1.40;1.30;;;21.30;64.70;;;;;;5090269;27;20026;-60
2022/07/13 12:30:11;;;;;;;1.17;1.10;;;21.30;64.50;;;;;;5083117;27;20105;-59
2022/07/13 12:32:59;;;;;;;1.20;1.10;;;21.30;64.40;;;;;;5074926;27;20075;-58
2022/07/13 12:35:45;;;;;;;1.42;1.33;;;21.40;64.20;;;;;;5079840;27;20763;-58
2022/07/13 12:38:12;;;;;;;1.42;1.30;;;21.40;64.40;;;;;;5079015;27;20043;-58
2022/07/13 12:40:49;;;;;;;1.10;1.10;;;21.40;64.30;;;;;;5076497;27;20070;-60
2022/07/13 12:43:25;;;;;;;1.20;1.10;;;21.40;64.20;;;;;;5083669;27;20035;-59
2022/07/13 12:45:52;;;;;;;1.10;1.00;;;21.40;64.20;;;;;;5081846;28;20054;-58
2022/07/13 12:48:21;;;;;;;1.50;0.98;;;21.40;64.50;;;;;;5076482;27;20020;-58
2022/07/13 12:50:59;;;;;;;0.90;0.90;;;21.40;64.30;;;;;;5083463;27;20043;-58
2022/07/13 12:53:44;;;;;;;0.73;0.73;;;21.40;64.40;;;;;;5057506;28;20044;-59
2022/07/13 12:56:10;;;;;;;0.95;0.95;;;21.40;64.40;;;;;;5078178;27;20057;-58
2022/07/13 12:58:44;;;;;;;1.02;0.93;;;21.40;64.30;;;;;;5069482;27;20042;-58
2022/07/13 13:01:10;;;;;;;1.00;1.00;;;21.30;64.30;;;;;;5067308;27;20031;-59
2022/07/13 13:03:36;;;;;;;0.90;0.90;;;21.30;64.40;;;;;;5073882;27;20031;-57